createdAt,value
2018-04-18T00:01:38.386Z,96258.73
2018-04-18T00:04:06.853Z,96265.13
2018-04-18T00:06:35.557Z,96263.12
2018-04-18T00:09:03.917Z,96267.00
2018-04-18T00:11:32.941Z,96260.41
2018-04-18T00:14:02.164Z,96265.62
2018-04-18T00:16:30.622Z,96266.61
2018-04-18T00:18:59.174Z,96266.17
2018-04-18T00:21:27.539Z,96265.50
2018-04-18T00:23:56.128Z,96270.04
2018-04-18T00:26:24.630Z,96267.99
2018-04-18T00:28:53.041Z,96274.05
2018-04-18T00:31:21.507Z,96271.23
2018-04-18T00:33:49.933Z,96273.37
2018-04-18T00:36:18.391Z,96269.98
2018-04-18T00:38:46.993Z,96270.38
2018-04-18T00:41:15.434Z,96274.89
2018-04-18T00:43:43.833Z,96275.53
2018-04-18T00:46:12.220Z,96275.25
2018-04-18T00:48:40.626Z,96274.11
2018-04-18T00:51:09.129Z,96274.57
2018-04-18T00:53:37.618Z,96274.48
2018-04-18T00:56:06.039Z,96270.64
2018-04-18T00:58:34.426Z,96271.86
2018-04-18T01:01:03.326Z,96265.36
2018-04-18T01:03:32.068Z,96266.53
2018-04-18T01:06:00.503Z,96267.39
2018-04-18T01:08:29.413Z,96265.70
2018-04-18T01:10:59.093Z,96263.55
2018-04-18T01:13:27.627Z,96271.70
2018-04-18T01:15:56.009Z,96267.75
2018-04-18T01:18:24.413Z,96271.73
2018-04-18T01:20:52.817Z,96265.58
2018-04-18T01:23:21.222Z,96264.39
2018-04-18T01:25:49.690Z,96266.90
2018-04-18T01:28:18.073Z,96266.00
2018-04-18T01:30:46.478Z,96265.38
2018-04-18T01:33:14.877Z,96264.86
2018-04-18T01:35:43.274Z,96270.26
2018-04-18T01:38:11.823Z,96273.14
2018-04-18T01:40:40.234Z,96264.82
2018-04-18T01:43:08.630Z,96272.63
2018-04-18T01:45:36.999Z,96263.91
2018-04-18T01:48:05.528Z,96271.28
2018-04-18T01:50:33.895Z,96266.48
2018-04-18T01:53:02.263Z,96270.23
2018-04-18T01:55:30.618Z,96275.13
2018-04-18T01:57:59.003Z,96269.05
2018-04-18T02:00:27.370Z,96273.08
2018-04-18T02:02:55.730Z,96265.78
2018-04-18T02:05:24.166Z,96269.22
2018-04-18T02:07:52.531Z,96269.96
2018-04-18T02:10:20.941Z,96279.80
2018-04-18T02:12:49.395Z,96278.23
2018-04-18T02:15:17.752Z,96278.03
2018-04-18T02:17:46.128Z,96276.25
2018-04-18T02:20:14.613Z,96283.86
2018-04-18T02:22:43.060Z,96282.39
2018-04-18T02:25:11.425Z,96282.52
2018-04-18T02:27:39.897Z,96284.03
2018-04-18T02:30:09.235Z,96285.80
2018-04-18T02:32:37.573Z,96287.98
2018-04-18T02:35:06.045Z,96295.20
2018-04-18T02:37:34.421Z,96293.67
2018-04-18T02:40:02.830Z,96292.23
2018-04-18T02:42:31.185Z,96290.98
2018-04-18T02:44:59.559Z,96292.82
2018-04-18T02:47:28.040Z,96298.95
2018-04-18T02:49:56.415Z,96293.98
2018-04-18T02:52:24.810Z,96299.18
2018-04-18T02:54:53.210Z,96301.91
2018-04-18T02:57:21.711Z,96303.75
2018-04-18T02:59:50.114Z,96299.41
2018-04-18T03:02:18.519Z,96301.71
2018-04-18T03:04:46.918Z,96300.70
2018-04-18T03:07:15.331Z,96307.70
2018-04-18T03:09:43.739Z,96307.45
2018-04-18T03:12:12.139Z,96308.09
2018-04-18T03:14:40.643Z,96311.11
2018-04-18T03:17:09.112Z,96306.16
2018-04-18T03:19:37.509Z,96314.48
2018-04-18T03:22:05.895Z,96315.16
2018-04-18T03:24:34.305Z,96319.31
2018-04-18T03:27:02.712Z,96320.94
2018-04-18T03:29:31.095Z,96327.47
2018-04-18T03:31:59.485Z,96319.47
2018-04-18T03:34:27.891Z,96323.69
2018-04-18T03:36:56.349Z,96326.77
2018-04-18T03:39:24.744Z,96324.52
2018-04-18T03:41:53.137Z,96320.49
2018-04-18T03:44:21.589Z,96329.78
2018-04-18T03:46:50.898Z,96326.08
2018-04-18T03:49:19.286Z,96331.78
2018-04-18T03:51:47.785Z,96328.10
2018-04-18T03:54:16.226Z,96328.88
2018-04-18T03:56:44.769Z,96332.66
2018-04-18T03:59:13.173Z,96336.31
2018-04-18T04:01:41.546Z,96331.05
2018-04-18T04:04:09.949Z,96334.66
2018-04-18T04:06:38.425Z,96333.16
2018-04-18T04:09:06.866Z,96341.59
2018-04-18T04:11:35.223Z,96340.95
2018-04-18T04:14:03.607Z,96343.84
2018-04-18T04:16:43.679Z,96344.97
2018-04-18T04:19:23.759Z,96339.15
2018-04-18T04:22:03.785Z,96347.35
2018-04-18T04:24:40.777Z,96349.45
2018-04-18T04:27:09.400Z,96350.69
2018-04-18T04:29:37.859Z,96355.98
2018-04-18T04:32:06.346Z,96360.53
2018-04-18T04:34:34.776Z,96365.95
2018-04-18T04:37:03.300Z,96362.55
2018-04-18T04:39:31.733Z,96363.30
2018-04-18T04:42:00.438Z,96368.38
2018-04-18T04:44:29.222Z,96370.63
2018-04-18T04:46:58.055Z,96369.02
2018-04-18T04:49:26.789Z,96370.50
2018-04-18T04:51:55.408Z,96379.77
2018-04-18T04:54:32.434Z,96372.78
2018-04-18T04:57:01.051Z,96379.75
2018-04-18T04:59:29.793Z,96377.92
2018-04-18T05:01:58.487Z,96385.42
2018-04-18T05:04:27.293Z,96385.17
2018-04-18T05:06:56.122Z,96382.14
2018-04-18T05:09:24.934Z,96388.59
2018-04-18T05:11:53.383Z,96389.90
2018-04-18T05:14:21.811Z,96385.49
2018-04-18T05:16:50.202Z,96389.11
2018-04-18T05:19:18.708Z,96394.68
2018-04-18T05:21:47.158Z,96399.48
2018-04-18T05:24:15.561Z,96402.59
2018-04-18T05:26:44.055Z,96403.77
2018-04-18T05:29:12.473Z,96402.83
2018-04-18T05:31:40.869Z,96406.52
2018-04-18T05:34:09.348Z,96404.87
2018-04-18T05:36:38.177Z,96402.61
2018-04-18T05:39:06.996Z,96406.73
2018-04-18T05:41:35.770Z,96407.88
2018-04-18T05:44:04.547Z,96410.98
2018-04-18T05:46:33.172Z,96414.91
2018-04-18T05:49:01.911Z,96417.00
2018-04-18T05:51:30.585Z,96420.90
2018-04-18T05:53:59.116Z,96419.65
2018-04-18T05:56:27.814Z,96424.19
2018-04-18T05:58:56.531Z,96422.00
2018-04-18T06:01:25.028Z,96426.99
2018-04-18T06:03:53.720Z,96436.14
2018-04-18T06:06:22.268Z,96436.45
2018-04-18T06:08:50.677Z,96432.45
2018-04-18T06:11:19.391Z,96434.98
2018-04-18T06:13:48.472Z,96441.03
2018-04-18T06:16:17.338Z,96432.93
2018-04-18T06:18:46.120Z,96442.67
2018-04-18T06:21:14.830Z,96441.50
2018-04-18T06:23:44.230Z,96436.87
2018-04-18T06:26:13.057Z,96444.96
2018-04-18T06:28:42.336Z,96446.84
2018-04-18T06:31:11.496Z,96449.66
2018-04-18T06:33:40.070Z,96448.52
2018-04-18T06:36:09.171Z,96448.09
2018-04-18T06:38:37.666Z,96449.55
2018-04-18T06:41:06.183Z,96446.74
2018-04-18T06:43:34.586Z,96451.02
2018-04-18T06:46:02.985Z,96449.84
2018-04-18T06:48:31.378Z,96455.84
2018-04-18T06:50:59.784Z,96449.38
2018-04-18T06:53:28.227Z,96453.73
2018-04-18T06:55:56.600Z,96457.55
2018-04-18T06:58:24.983Z,96455.04
2018-04-18T07:00:53.381Z,96451.86
2018-04-18T07:03:21.763Z,96462.51
2018-04-18T07:05:50.159Z,96458.22
2018-04-18T07:08:18.560Z,96464.98
2018-04-18T07:10:46.994Z,96469.85
2018-04-18T07:13:15.495Z,96474.25
2018-04-18T07:15:43.895Z,96472.77
2018-04-18T07:18:12.263Z,96473.61
2018-04-18T07:20:40.670Z,96471.31
2018-04-18T07:23:09.121Z,96478.45
2018-04-18T07:25:37.547Z,96475.97
2018-04-18T07:28:05.930Z,96473.19
2018-04-18T07:30:34.322Z,96474.23
2018-04-18T07:33:02.703Z,96475.45
2018-04-18T07:35:31.242Z,96482.16
2018-04-18T07:37:59.635Z,96488.84
2018-04-18T07:40:28.021Z,96486.69
2018-04-18T07:42:56.422Z,96488.14
2018-04-18T07:45:24.798Z,96490.45
2018-04-18T07:47:53.244Z,96497.81
2018-04-18T07:50:21.597Z,96498.52
2018-04-18T07:52:50.002Z,96498.67
2018-04-18T07:55:18.413Z,96498.11
2018-04-18T07:57:47.776Z,96500.04
2018-04-18T08:00:16.302Z,96498.70
2018-04-18T08:02:44.908Z,96502.58
2018-04-18T08:05:13.541Z,96498.17
2018-04-18T08:07:42.244Z,96506.37
2018-04-18T08:10:10.851Z,96507.17
2018-04-18T08:12:39.407Z,96502.38
2018-04-18T08:15:08.110Z,96502.63
2018-04-18T08:17:36.853Z,96502.94
2018-04-18T08:20:05.600Z,96512.13
2018-04-18T08:22:34.098Z,96508.16
2018-04-18T08:25:02.462Z,96508.88
2018-04-18T08:27:30.827Z,96507.55
2018-04-18T08:29:59.188Z,96508.81
2018-04-18T08:32:27.879Z,96510.98
2018-04-18T08:34:56.290Z,96514.25
2018-04-18T08:37:24.647Z,96515.69
2018-04-18T08:39:53.044Z,96513.20
2018-04-18T08:42:21.684Z,96505.80
2018-04-18T08:44:57.679Z,96508.30
2018-04-18T08:47:27.676Z,96516.19
2018-04-18T08:49:56.761Z,96511.19
2018-04-18T08:52:25.218Z,96508.95
2018-04-18T08:54:53.609Z,96506.88
2018-04-18T08:57:22.005Z,96503.72
2018-04-18T08:59:50.430Z,96505.18
2018-04-18T09:02:18.792Z,96503.94
2018-04-18T09:04:47.147Z,96504.23
2018-04-18T09:07:15.557Z,96504.45
2018-04-18T09:09:43.928Z,96508.87
2018-04-18T09:12:14.285Z,96510.87
2018-04-18T09:14:42.669Z,96513.55
2018-04-18T09:17:11.056Z,96512.28
2018-04-18T09:19:40.413Z,96516.02
2018-04-18T09:22:09.647Z,96510.41
2018-04-18T09:24:38.410Z,96510.34
2018-04-18T09:27:06.819Z,96512.40
2018-04-18T09:29:36.622Z,96509.09
2018-04-18T09:32:05.021Z,96508.30
2018-04-18T09:34:33.382Z,96505.63
2018-04-18T09:37:01.734Z,96505.21
2018-04-18T09:39:30.103Z,96510.65
2018-04-18T09:41:58.518Z,96506.19
2018-04-18T09:44:26.901Z,96508.53
2018-04-18T09:46:55.267Z,96512.72
2018-04-18T09:49:23.636Z,96509.11
2018-04-18T09:51:52.031Z,96501.48
2018-04-18T09:54:20.459Z,96508.48
2018-04-18T09:56:48.809Z,96503.95
2018-04-18T09:59:17.241Z,96503.89
2018-04-18T10:01:47.709Z,96509.50
2018-04-18T10:04:31.385Z,96508.41
2018-04-18T10:06:59.741Z,96509.80
2018-04-18T10:09:28.127Z,96505.84
2018-04-18T10:11:56.528Z,96509.61
2018-04-18T10:14:24.900Z,96510.59
2018-04-18T10:16:53.273Z,96510.77
2018-04-18T10:19:21.645Z,96509.54
2018-04-18T10:21:50.001Z,96508.19
2018-04-18T10:24:18.431Z,96507.94
2018-04-18T10:26:46.983Z,96510.20
2018-04-18T10:29:15.341Z,96517.94
2018-04-18T10:31:43.717Z,96516.84
2018-04-18T10:34:12.087Z,96512.77
2018-04-18T10:36:40.489Z,96507.03
2018-04-18T10:39:08.855Z,96506.86
2018-04-18T10:41:37.220Z,96511.82
2018-04-18T10:44:05.588Z,96510.70
2018-04-18T10:46:34.043Z,96510.50
2018-04-18T10:49:02.557Z,96513.10
2018-04-18T10:51:31.277Z,96508.39
2018-04-18T10:53:59.723Z,96509.91
2018-04-18T10:56:28.216Z,96502.52
2018-04-18T10:58:56.655Z,96504.87
2018-04-18T11:01:25.070Z,96505.65
2018-04-18T11:03:53.438Z,96507.14
2018-04-18T11:06:21.810Z,96508.08
2018-04-18T11:08:50.175Z,96504.69
2018-04-18T11:11:18.566Z,96502.39
2018-04-18T11:13:46.932Z,96502.26
2018-04-18T11:16:15.318Z,96506.26
2018-04-18T11:18:43.767Z,96493.11
2018-04-18T11:21:12.099Z,96500.48
2018-04-18T11:23:40.479Z,96492.04
2018-04-18T11:26:08.840Z,96493.52
2018-04-18T11:28:37.210Z,96494.61
2018-04-18T11:31:05.808Z,96493.98
2018-04-18T11:33:34.234Z,96498.30
2018-04-18T11:36:02.628Z,96482.27
2018-04-18T11:38:31.347Z,96485.53
2018-04-18T11:40:59.852Z,96488.97
2018-04-18T11:43:28.242Z,96486.76
2018-04-18T11:45:56.711Z,96486.78
2018-04-18T11:48:25.162Z,96482.31
2018-04-18T11:50:53.600Z,96479.69
2018-04-18T11:53:22.929Z,96486.86
2018-04-18T11:55:51.310Z,96474.77
2018-04-18T11:58:19.719Z,96482.41
2018-04-18T12:00:48.118Z,96484.16
2018-04-18T12:03:16.677Z,96484.09
2018-04-18T12:05:45.069Z,96482.81
2018-04-18T12:08:13.479Z,96479.17
2018-04-18T12:10:41.858Z,96481.86
2018-04-18T12:13:10.271Z,96486.06
2018-04-18T12:15:38.717Z,96488.19
2018-04-18T12:18:07.120Z,96478.55
2018-04-18T12:20:35.522Z,96476.05
2018-04-18T12:23:03.910Z,96480.91
2018-04-18T12:25:32.323Z,96482.82
2018-04-18T12:28:00.696Z,96485.94
2018-04-18T12:30:31.982Z,96474.97
2018-04-18T12:33:00.424Z,96489.63
2018-04-18T12:35:28.803Z,96482.00
2018-04-18T12:37:57.166Z,96479.98
2018-04-18T12:40:25.812Z,96481.81
2018-04-18T12:42:54.172Z,96478.14
2018-04-18T12:45:22.618Z,96472.94
2018-04-18T12:47:51.006Z,96484.63
2018-04-18T12:50:19.383Z,96479.27
2018-04-18T12:52:47.755Z,96475.84
2018-04-18T12:55:16.123Z,96473.80
2018-04-18T12:57:44.601Z,96478.54
2018-04-18T13:00:13.136Z,96471.55
2018-04-18T13:02:41.606Z,96468.66
2018-04-18T13:05:09.975Z,96466.48
2018-04-18T13:07:38.386Z,96468.59
2018-04-18T13:10:06.783Z,96460.69
2018-04-18T13:12:35.189Z,96459.50
2018-04-18T13:15:03.621Z,96459.23
2018-04-18T13:17:32.000Z,96454.88
2018-04-18T13:20:00.392Z,96454.19
2018-04-18T13:22:28.783Z,96452.87
2018-04-18T13:24:57.296Z,96446.22
2018-04-18T13:27:28.210Z,96449.67
2018-04-18T13:29:56.750Z,96445.09
2018-04-18T13:32:25.294Z,96449.12
2018-04-18T13:34:54.201Z,96448.34
2018-04-18T13:37:22.595Z,96451.44
2018-04-18T13:39:51.115Z,96440.67
2018-04-18T13:42:19.563Z,96439.45
2018-04-18T13:44:47.978Z,96433.17
2018-04-18T13:47:16.390Z,96443.20
2018-04-18T13:49:44.761Z,96439.44
2018-04-18T13:52:13.159Z,96441.45
2018-04-18T13:54:41.553Z,96436.43
2018-04-18T13:57:09.996Z,96436.25
2018-04-18T13:59:38.478Z,96434.50
2018-04-18T14:02:06.858Z,96438.91
2018-04-18T14:04:35.242Z,96434.44
2018-04-18T14:07:03.643Z,96438.70
2018-04-18T14:09:32.115Z,96438.05
2018-04-18T14:12:00.506Z,96435.27
2018-04-18T14:14:28.903Z,96439.00
2018-04-18T14:16:57.311Z,96434.14
2018-04-18T14:19:25.811Z,96435.17
2018-04-18T14:21:54.237Z,96432.89
2018-04-18T14:24:22.699Z,96434.48
2018-04-18T14:26:51.087Z,96429.52
2018-04-18T14:29:19.554Z,96429.76
2018-04-18T14:31:48.054Z,96424.16
2018-04-18T14:34:16.436Z,96429.33
2018-04-18T14:36:44.829Z,96427.89
2018-04-18T14:39:13.676Z,96428.36
2018-04-18T14:41:42.046Z,96427.11
2018-04-18T14:44:10.456Z,96421.08
2018-04-18T14:46:38.850Z,96423.80
2018-04-18T14:49:07.230Z,96415.12
2018-04-18T14:51:35.598Z,96409.84
2018-04-18T14:54:04.099Z,96413.45
2018-04-18T14:56:32.467Z,96413.58
2018-04-18T14:59:00.824Z,96414.58
2018-04-18T15:01:29.178Z,96414.52
2018-04-18T15:03:57.545Z,96414.73
2018-04-18T15:06:25.915Z,96418.05
2018-04-18T15:08:54.278Z,96411.60
2018-04-18T15:11:22.730Z,96404.22
2018-04-18T15:13:51.099Z,96410.42
2018-04-18T15:16:19.496Z,96411.44
2018-04-18T15:18:47.855Z,96402.72
2018-04-18T15:21:16.973Z,96403.92
2018-04-18T15:23:45.585Z,96408.89
2018-04-18T15:26:14.176Z,96402.56
2018-04-18T15:28:44.614Z,96400.65
2018-04-18T15:31:14.025Z,96396.39
2018-04-18T15:33:42.528Z,96389.94
2018-04-18T15:36:10.909Z,96404.20
2018-04-18T15:38:39.305Z,96392.85
2018-04-18T15:41:07.734Z,96390.54
2018-04-18T15:46:21.383Z,96389.63
2018-04-18T15:48:49.749Z,96384.21
2018-04-18T15:51:18.134Z,96388.81
2018-04-18T15:53:46.508Z,96389.56
2018-04-18T15:56:14.950Z,96385.84
2018-04-18T15:58:43.299Z,96388.67
2018-04-18T16:01:11.728Z,96385.97
2018-04-18T16:03:40.096Z,96381.04
2018-04-18T16:06:08.537Z,96390.36
2018-04-18T16:08:36.904Z,96381.61
2018-04-18T16:11:05.330Z,96385.77
2018-04-18T16:13:33.719Z,96382.69
2018-04-18T16:16:02.073Z,96376.48
2018-04-18T16:18:30.472Z,96382.16
2018-04-18T16:20:58.881Z,96383.25
2018-04-18T16:23:27.285Z,96379.36
2018-04-18T16:25:55.660Z,96376.91
2018-04-18T16:28:24.018Z,96382.39
2018-04-18T16:30:52.459Z,96379.82
2018-04-18T16:33:20.825Z,96374.95
2018-04-18T16:35:49.230Z,96374.38
2018-04-18T16:38:17.627Z,96372.74
2018-04-18T16:40:45.998Z,96377.00
2018-04-18T16:43:14.403Z,96374.56
2018-04-18T16:45:42.785Z,96367.66
2018-04-18T16:48:11.178Z,96372.18
2018-04-18T16:50:39.566Z,96370.39
2018-04-18T16:53:07.973Z,96367.31
2018-04-18T16:55:36.359Z,96366.04
2018-04-18T16:58:04.721Z,96372.59
2018-04-18T17:00:33.090Z,96370.73
2018-04-18T17:03:01.495Z,96368.34
2018-04-18T17:05:29.895Z,96371.94
2018-04-18T17:07:58.261Z,96367.82
2018-04-18T17:10:26.710Z,96372.50
2018-04-18T17:12:55.077Z,96371.23
2018-04-18T17:15:23.450Z,96366.78
2018-04-18T17:17:52.026Z,96367.88
2018-04-18T17:20:21.032Z,96371.41
2018-04-18T17:22:51.551Z,96367.84
2018-04-18T17:25:19.949Z,96358.27
2018-04-18T17:27:48.420Z,96361.84
2018-04-18T17:30:16.799Z,96361.17
2018-04-18T17:32:45.268Z,96364.55
2018-04-18T17:35:13.665Z,96362.00
2018-04-18T17:37:42.092Z,96361.90
2018-04-18T17:40:10.471Z,96364.13
2018-04-18T17:42:38.894Z,96364.67
2018-04-18T17:45:07.361Z,96362.09
2018-04-18T17:47:35.756Z,96358.61
2018-04-18T17:50:04.157Z,96360.75
2018-04-18T17:52:32.565Z,96360.72
2018-04-18T17:55:01.011Z,96363.16
2018-04-18T17:57:29.443Z,96363.44
2018-04-18T17:59:57.838Z,96364.23
2018-04-18T18:02:26.240Z,96366.88
2018-04-18T18:04:54.650Z,96370.69
2018-04-18T18:07:23.927Z,96370.09
2018-04-18T18:10:06.833Z,96371.02
2018-04-18T18:12:35.234Z,96371.36
2018-04-18T18:15:03.698Z,96371.73
2018-04-18T18:17:32.458Z,96379.78
2018-04-18T18:20:01.597Z,96382.66
2018-04-18T18:22:30.035Z,96386.30
2018-04-18T18:24:58.450Z,96379.25
2018-04-18T18:27:26.963Z,96385.38
2018-04-18T18:29:55.383Z,96385.75
2018-04-18T18:32:23.857Z,96393.59
2018-04-18T18:34:52.266Z,96390.27
2018-04-18T18:37:20.752Z,96390.13
2018-04-18T18:39:49.210Z,96399.94
2018-04-18T18:42:17.602Z,96401.53
2018-04-18T18:44:46.049Z,96401.00
2018-04-18T18:47:14.476Z,96399.77
2018-04-18T18:49:42.955Z,96401.23
2018-04-18T18:52:11.322Z,96404.02
2018-04-18T18:54:39.733Z,96403.18
2018-04-18T18:57:08.212Z,96405.81
2018-04-18T18:59:36.596Z,96404.16
2018-04-18T19:02:05.027Z,96413.15
2018-04-18T19:04:33.401Z,96412.31
2018-04-18T19:07:01.778Z,96412.84
2018-04-18T19:09:30.185Z,96416.52
2018-04-18T19:11:58.560Z,96423.16
2018-04-18T19:14:27.133Z,96421.24
2018-04-18T19:16:55.632Z,96414.72
2018-04-18T19:19:24.034Z,96419.55
2018-04-18T19:21:52.410Z,96427.66
2018-04-18T19:24:20.808Z,96426.19
2018-04-18T19:26:49.214Z,96429.95
2018-04-18T19:29:17.656Z,96435.43
2018-04-18T19:31:46.047Z,96432.58
2018-04-18T19:34:14.454Z,96428.38
2018-04-18T19:36:42.865Z,96431.55
2018-04-18T19:39:11.533Z,96433.50
2018-04-18T19:41:40.282Z,96434.45
2018-04-18T19:44:08.759Z,96431.19
2018-04-18T19:46:37.278Z,96430.94
2018-04-18T19:49:05.758Z,96427.14
2018-04-18T19:51:34.593Z,96428.33
2018-04-18T19:54:02.997Z,96430.92
2018-04-18T19:56:31.469Z,96426.27
2018-04-18T19:58:59.967Z,96424.78
2018-04-18T20:01:28.372Z,96427.13
2018-04-18T20:03:56.802Z,96423.77
2018-04-18T20:06:25.196Z,96424.31
2018-04-18T20:08:53.629Z,96420.14
2018-04-18T20:11:22.043Z,96420.17
2018-04-18T20:13:50.445Z,96419.89
2018-04-18T20:16:18.851Z,96417.42
2018-04-18T20:18:47.255Z,96418.78
2018-04-18T20:21:15.753Z,96418.08
2018-04-18T20:23:44.254Z,96415.69
2018-04-18T20:26:12.738Z,96413.58
2018-04-18T20:28:41.329Z,96410.84
2018-04-18T20:31:09.721Z,96418.45
2018-04-18T20:33:38.289Z,96408.88
2018-04-18T20:36:07.216Z,96416.34
2018-04-18T20:38:36.520Z,96423.25
2018-04-18T20:41:04.930Z,96420.13
2018-04-18T20:43:33.530Z,96416.25
2018-04-18T20:46:02.194Z,96416.48
2018-04-18T20:48:30.601Z,96410.55
2018-04-18T20:50:59.078Z,96413.63
2018-04-18T20:53:27.569Z,96416.95
2018-04-18T20:55:55.972Z,96415.36
2018-04-18T20:58:24.504Z,96415.88
2018-04-18T21:00:53.028Z,96411.22
2018-04-18T21:03:21.434Z,96410.75
2018-04-18T21:05:49.956Z,96416.66
2018-04-18T21:08:18.312Z,96413.31
2018-04-18T21:10:46.726Z,96411.29
2018-04-18T21:13:15.085Z,96414.55
2018-04-18T21:15:43.531Z,96416.63
2018-04-18T21:18:11.990Z,96416.11
2018-04-18T21:20:40.435Z,96411.01
2018-04-18T21:23:08.890Z,96413.26
2018-04-18T21:25:37.286Z,96411.97
2018-04-18T21:28:05.721Z,96413.05
2018-04-18T21:30:34.077Z,96415.45
2018-04-18T21:33:02.446Z,96412.47
2018-04-18T21:35:30.832Z,96417.74
2018-04-18T21:37:59.214Z,96415.78
2018-04-18T21:40:27.631Z,96420.43
2018-04-18T21:42:55.987Z,96413.36
2018-04-18T21:45:24.355Z,96418.17
2018-04-18T21:47:53.422Z,96417.16
2018-04-18T21:50:21.789Z,96410.73
2018-04-18T21:52:50.245Z,96413.36
2018-04-18T21:55:18.631Z,96409.60
2018-04-18T21:57:47.180Z,96409.44
2018-04-18T22:00:15.543Z,96407.08
2018-04-18T22:02:43.922Z,96410.89
2018-04-18T22:05:12.394Z,96412.77
2018-04-18T22:07:40.791Z,96411.58
2018-04-18T22:10:09.172Z,96409.80
2018-04-18T22:12:37.552Z,96412.22
2018-04-18T22:15:05.920Z,96411.70
2018-04-18T22:17:34.411Z,96413.89
2018-04-18T22:20:02.854Z,96417.16
2018-04-18T22:22:31.235Z,96414.30
2018-04-18T22:24:59.614Z,96411.39
2018-04-18T22:27:27.970Z,96419.48
2018-04-18T22:29:56.410Z,96417.13
2018-04-18T22:32:24.819Z,96419.58
2018-04-18T22:34:53.220Z,96420.36
2018-04-18T22:37:21.608Z,96419.66
2018-04-18T22:39:50.004Z,96418.66
2018-04-18T22:42:18.422Z,96420.00
2018-04-18T22:44:46.794Z,96422.28
2018-04-18T22:47:15.249Z,96421.98
2018-04-18T22:49:43.641Z,96422.88
2018-04-18T22:52:12.021Z,96425.28
2018-04-18T22:54:40.405Z,96419.62
2018-04-18T22:57:08.798Z,96424.41
2018-04-18T22:59:37.154Z,96423.28
2018-04-18T23:02:05.547Z,96428.64
2018-04-18T23:04:34.003Z,96422.35
2018-04-18T23:07:02.416Z,96428.45
2018-04-18T23:09:30.839Z,96425.89
2018-04-18T23:11:59.234Z,96431.88
2018-04-18T23:14:27.727Z,96431.56
2018-04-18T23:16:56.207Z,96431.25
2018-04-18T23:19:24.593Z,96434.69
2018-04-18T23:21:52.993Z,96431.89
2018-04-18T23:24:21.371Z,96431.00
2018-04-18T23:26:49.797Z,96428.14
2018-04-18T23:29:18.207Z,96425.84
2018-04-18T23:31:46.626Z,96428.91
2018-04-18T23:34:15.067Z,96425.05
2018-04-18T23:36:43.413Z,96426.37
2018-04-18T23:39:11.780Z,96424.64
2018-04-18T23:41:40.146Z,96419.25
2018-04-18T23:44:08.561Z,96430.47
2018-04-18T23:46:36.914Z,96424.92
2018-04-18T23:49:05.334Z,96422.25
2018-04-18T23:51:33.706Z,96420.85
2018-04-18T23:54:02.089Z,96412.53
2018-04-18T23:56:30.448Z,96410.88
2018-04-18T23:58:58.801Z,96405.06
